Time;durP1;ratioP1;P1;durP2;ratioP2;P2;SDS_P1;SDS_P2;PMS_P1;PMS_P2;Temp;Humidity;BMP_temperature;BMP_pressure;BME280_temperature;BME280_humidity;BME280_pressure;Samples;Min_cycle;Max_cycle;Signal;HPM_P1;HPM_P2
2023/08/30 00:00:05;;;;;;;3.25;2.60;;;13.00;99.90;;;;;;5028224;28;20044;-85
2023/08/30 00:02:30;;;;;;;3.25;2.83;;;13.00;99.90;;;;;;5021741;28;20209;-85
2023/08/30 00:04:59;;;;;;;5.10;3.08;;;13.00;99.90;;;;;;5024293;28;20484;-86
2023/08/30 00:07:26;;;;;;;2.88;2.58;;;13.00;99.90;;;;;;5026039;28;20033;-86
2023/08/30 00:09:51;;;;;;;4.60;3.08;;;12.90;99.90;;;;;;5020664;28;20049;-86
2023/08/30 00:12:17;;;;;;;2.92;2.65;;;12.90;99.90;;;;;;5030330;28;20060;-85
2023/08/30 00:14:42;;;;;;;3.47;2.72;;;12.90;99.90;;;;;;5022294;28;20026;-85
2023/08/30 00:17:09;;;;;;;3.17;2.88;;;12.90;99.90;;;;;;5022325;28;20033;-85
2023/08/30 00:19:35;;;;;;;3.33;2.88;;;12.90;99.90;;;;;;5013366;28;20044;-86
2023/08/30 00:22:00;;;;;;;3.80;2.65;;;12.90;99.90;;;;;;5022773;28;20112;-85
2023/08/30 00:24:26;;;;;;;2.75;2.45;;;12.90;99.90;;;;;;5021401;28;20053;-86
2023/08/30 00:26:51;;;;;;;4.63;3.03;;;12.80;99.90;;;;;;5021772;28;20396;-86
2023/08/30 00:29:17;;;;;;;3.45;2.42;;;12.80;99.90;;;;;;5020391;28;20102;-86
2023/08/30 00:31:43;;;;;;;3.17;2.70;;;12.80;99.90;;;;;;5023156;28;20136;-85
2023/08/30 00:34:08;;;;;;;2.67;2.35;;;12.70;99.90;;;;;;5022551;28;20022;-86
2023/08/30 00:36:34;;;;;;;2.85;2.47;;;12.70;99.90;;;;;;5016662;28;20055;-86
2023/08/30 00:38:59;;;;;;;3.63;3.20;;;12.70;99.90;;;;;;5025535;28;20029;-86
2023/08/30 00:41:25;;;;;;;2.90;2.70;;;12.70;99.90;;;;;;5020942;28;20108;-85
2023/08/30 00:43:50;;;;;;;2.95;2.67;;;12.70;99.90;;;;;;5026240;28;20570;-85
2023/08/30 00:46:16;;;;;;;3.72;2.97;;;12.60;99.90;;;;;;5020363;28;20032;-86
2023/08/30 00:48:43;;;;;;;4.72;2.88;;;12.60;99.90;;;;;;5026890;28;20065;-85
2023/08/30 00:51:09;;;;;;;2.92;2.67;;;12.50;99.90;;;;;;5012798;28;20481;-85
2023/08/30 00:53:34;;;;;;;4.28;3.35;;;12.50;99.90;;;;;;5014603;28;20087;-85
2023/08/30 00:56:00;;;;;;;4.05;3.67;;;12.50;99.90;;;;;;5018861;28;20113;-86
2023/08/30 00:58:26;;;;;;;4.00;3.33;;;12.50;99.90;;;;;;5018377;28;20026;-86
2023/08/30 01:00:53;;;;;;;3.30;2.90;;;12.50;99.90;;;;;;5024543;28;20670;-85
2023/08/30 01:03:21;;;;;;;5.63;3.75;;;12.40;99.90;;;;;;5016812;28;20033;-85
2023/08/30 01:05:47;;;;;;;3.85;3.47;;;12.50;99.90;;;;;;5024998;28;20033;-85
2023/08/30 01:08:13;;;;;;;5.40;3.83;;;12.50;99.90;;;;;;5022475;28;20117;-86
2023/08/30 01:10:52;;;;;;;4.43;3.15;;;12.50;99.90;;;;;;5013572;28;20024;-85
2023/08/30 01:13:20;;;;;;;4.00;3.13;;;12.50;99.90;;;;;;5025710;28;20071;-86
2023/08/30 01:15:48;;;;;;;4.13;3.30;;;12.40;99.90;;;;;;5042983;28;20041;-86
2023/08/30 01:18:19;;;;;;;4.13;3.55;;;12.40;99.90;;;;;;5035556;28;20013;-86
2023/08/30 01:20:46;;;;;;;5.95;3.25;;;12.40;99.90;;;;;;5020847;28;20025;-86
2023/08/30 01:23:23;;;;;;;6.13;3.50;;;12.40;99.90;;;;;;5027944;28;20681;-86
2023/08/30 01:26:08;;;;;;;3.83;3.50;;;12.40;99.90;;;;;;5018014;28;20099;-86
2023/08/30 01:28:37;;;;;;;3.92;3.50;;;12.40;99.90;;;;;;5025179;28;20109;-86
2023/08/30 01:31:03;;;;;;;4.78;3.50;;;12.40;99.90;;;;;;5024738;28;20025;-86
2023/08/30 01:33:30;;;;;;;4.57;4.07;;;12.40;99.90;;;;;;5025017;28;20022;-86
2023/08/30 01:35:58;;;;;;;4.05;3.28;;;12.30;99.90;;;;;;5024917;28;20018;-85
2023/08/30 01:38:27;;;;;;;4.80;3.33;;;12.30;99.90;;;;;;5029397;28;20025;-87
2023/08/30 01:40:55;;;;;;;3.97;3.67;;;12.30;99.90;;;;;;5023162;28;20026;-87
2023/08/30 01:43:21;;;;;;;4.28;3.88;;;12.30;99.90;;;;;;5029591;28;20025;-86
2023/08/30 01:45:47;;;;;;;4.28;3.83;;;12.30;99.90;;;;;;5023408;28;20026;-86
2023/08/30 01:48:16;;;;;;;5.57;4.43;;;12.30;99.90;;;;;;5024008;28;20400;-86
2023/08/30 01:50:43;;;;;;;5.35;4.20;;;12.30;99.90;;;;;;5012808;28;20534;-85
2023/08/30 01:53:11;;;;;;;5.35;3.72;;;12.30;99.90;;;;;;5022528;28;20599;-85
2023/08/30 01:55:38;;;;;;;4.93;3.97;;;12.20;99.90;;;;;;5029905;28;20440;-85
2023/08/30 01:58:05;;;;;;;4.05;3.47;;;12.20;99.90;;;;;;5022704;28;20436;-85
2023/08/30 02:00:31;;;;;;;4.07;3.67;;;12.20;99.90;;;;;;5022723;28;20037;-85
2023/08/30 02:02:57;;;;;;;3.20;2.95;;;12.20;99.90;;;;;;5023683;28;20043;-85
2023/08/30 02:05:22;;;;;;;4.10;3.70;;;12.10;99.90;;;;;;5019274;28;20037;-85
2023/08/30 02:08:04;;;;;;;4.72;3.95;;;12.10;99.90;;;;;;5023104;28;20097;-85
2023/08/30 02:10:34;;;;;;;3.92;3.38;;;12.10;99.90;;;;;;5016383;28;20096;-85
2023/08/30 02:13:01;;;;;;;5.45;4.47;;;12.00;99.90;;;;;;5019186;28;20068;-85
2023/08/30 02:15:29;;;;;;;4.50;3.80;;;12.10;99.90;;;;;;5022377;28;20059;-85
2023/08/30 02:17:55;;;;;;;4.47;3.65;;;12.10;99.90;;;;;;5021976;28;20026;-85
2023/08/30 02:20:21;;;;;;;3.95;3.63;;;12.10;99.90;;;;;;5016336;28;20041;-85
2023/08/30 02:22:47;;;;;;;4.72;3.60;;;12.10;99.90;;;;;;5015072;28;20030;-85
2023/08/30 02:25:12;;;;;;;3.65;3.33;;;12.10;99.90;;;;;;5019968;28;20037;-85
2023/08/30 02:27:38;;;;;;;4.38;3.92;;;12.10;99.90;;;;;;5019480;28;20030;-85
2023/08/30 02:30:04;;;;;;;4.57;4.07;;;12.10;99.90;;;;;;5023838;28;20420;-85
2023/08/30 02:32:29;;;;;;;5.57;3.60;;;12.10;99.90;;;;;;5022198;28;20136;-85
2023/08/30 02:34:56;;;;;;;4.07;3.67;;;12.10;99.90;;;;;;5021907;28;20577;-85
2023/08/30 02:37:22;;;;;;;4.43;4.03;;;12.10;99.90;;;;;;5022414;28;20103;-85
2023/08/30 02:39:47;;;;;;;6.38;4.30;;;12.10;99.90;;;;;;5019443;28;20531;-85
2023/08/30 02:42:13;;;;;;;4.93;4.22;;;12.10;99.90;;;;;;5023019;28;20506;-85
2023/08/30 02:44:59;;;;;;;4.15;3.75;;;12.10;99.90;;;;;;5035137;28;20038;-84
2023/08/30 02:47:25;;;;;;;4.72;4.32;;;12.10;99.90;;;;;;5036463;28;20045;-83
2023/08/30 02:49:50;;;;;;;4.30;3.90;;;12.20;99.90;;;;;;5029021;28;20046;-84
2023/08/30 02:52:17;;;;;;;4.18;3.78;;;12.10;99.90;;;;;;5024173;28;20029;-84
2023/08/30 02:54:42;;;;;;;5.60;4.38;;;12.10;99.90;;;;;;5029265;28;20029;-83
2023/08/30 02:57:08;;;;;;;4.80;3.45;;;12.20;99.90;;;;;;5023430;28;20034;-84
2023/08/30 02:59:34;;;;;;;4.65;4.18;;;12.10;99.90;;;;;;5037601;28;20033;-84
2023/08/30 03:01:59;;;;;;;4.80;4.00;;;12.20;99.90;;;;;;5023539;28;20041;-84
2023/08/30 03:04:25;;;;;;;5.82;4.40;;;12.20;99.90;;;;;;5015989;28;20030;-85
2023/08/30 03:06:50;;;;;;;4.95;4.13;;;12.20;99.90;;;;;;5027669;28;20034;-83
2023/08/30 03:09:16;;;;;;;5.15;4.65;;;12.20;99.90;;;;;;5022672;28;20026;-85
2023/08/30 03:11:42;;;;;;;4.88;4.03;;;12.20;99.90;;;;;;5031168;28;20053;-85
2023/08/30 03:14:07;;;;;;;5.38;4.60;;;12.20;99.90;;;;;;5023877;28;20034;-84
2023/08/30 03:16:33;;;;;;;5.65;4.70;;;12.20;99.90;;;;;;5034806;28;20053;-85
2023/08/30 03:18:58;;;;;;;5.10;4.63;;;12.20;99.90;;;;;;5033280;28;20025;-84
2023/08/30 03:21:24;;;;;;;4.90;4.03;;;12.20;99.90;;;;;;5032863;28;20049;-83
2023/08/30 03:23:49;;;;;;;6.15;5.18;;;12.20;99.90;;;;;;5032233;28;20124;-83
2023/08/30 03:26:16;;;;;;;4.65;4.15;;;12.20;99.90;;;;;;5026311;28;20049;-83
2023/08/30 03:28:43;;;;;;;5.97;4.78;;;12.20;99.90;;;;;;5033794;28;20116;-83
2023/08/30 03:31:16;;;;;;;5.50;4.63;;;12.30;99.90;;;;;;5032687;28;20367;-83
2023/08/30 03:33:43;;;;;;;4.30;3.80;;;12.30;99.90;;;;;;5034223;28;20033;-84
2023/08/30 03:36:11;;;;;;;5.20;4.15;;;12.30;99.90;;;;;;5028160;28;20022;-84
2023/08/30 03:38:37;;;;;;;5.63;4.85;;;12.30;99.90;;;;;;5037285;28;20048;-84
2023/08/30 03:41:04;;;;;;;5.35;4.55;;;12.30;99.90;;;;;;5035329;28;20025;-85
2023/08/30 03:43:33;;;;;;;6.63;5.18;;;12.40;99.90;;;;;;5022754;28;20026;-85
2023/08/30 03:46:00;;;;;;;5.47;4.57;;;12.30;99.90;;;;;;5029992;28;20021;-85
2023/08/30 03:48:27;;;;;;;6.45;5.30;;;12.40;99.90;;;;;;5021711;28;20052;-85
2023/08/30 03:50:52;;;;;;;7.72;5.22;;;12.40;99.90;;;;;;5028963;28;20018;-85
2023/08/30 03:53:18;;;;;;;5.63;4.75;;;12.40;99.90;;;;;;5021774;28;20117;-85
2023/08/30 03:55:43;;;;;;;6.95;5.15;;;12.50;99.90;;;;;;5020446;28;20044;-84
2023/08/30 03:58:09;;;;;;;5.68;4.75;;;12.50;99.90;;;;;;5024784;28;20032;-85
2023/08/30 04:00:38;;;;;;;5.45;4.95;;;12.50;99.90;;;;;;5024387;28;20038;-85
2023/08/30 04:03:06;;;;;;;6.78;4.65;;;12.50;99.90;;;;;;5022427;28;20033;-84
2023/08/30 04:05:35;;;;;;;6.15;5.18;;;12.50;99.90;;;;;;5022495;28;20060;-85
2023/08/30 04:08:05;;;;;;;4.88;4.30;;;12.50;99.90;;;;;;5023826;28;20013;-87
2023/08/30 04:10:38;;;;;;;5.38;4.88;;;12.60;99.90;;;;;;5018467;28;20060;-85
2023/08/30 04:13:04;;;;;;;6.10;4.68;;;12.60;99.90;;;;;;5021332;28;20527;-85
2023/08/30 04:15:36;;;;;;;5.60;4.70;;;12.50;99.90;;;;;;5022819;28;20042;-85
2023/08/30 04:18:03;;;;;;;6.20;4.72;;;12.60;99.90;;;;;;5015907;28;20084;-86
2023/08/30 04:20:28;;;;;;;6.93;4.70;;;12.60;99.90;;;;;;5024983;28;20079;-86
2023/08/30 04:22:55;;;;;;;7.10;4.95;;;12.50;99.90;;;;;;5024057;28;20481;-85
2023/08/30 04:25:21;;;;;;;6.88;4.63;;;12.50;99.90;;;;;;5026073;28;20034;-86
2023/08/30 04:27:47;;;;;;;4.80;4.20;;;12.60;99.90;;;;;;5018747;28;20030;-86
2023/08/30 04:30:16;;;;;;;5.60;5.00;;;12.60;99.90;;;;;;5022952;28;20029;-87
2023/08/30 04:32:42;;;;;;;5.60;4.65;;;12.70;99.90;;;;;;5025567;28;20094;-86
2023/08/30 04:35:08;;;;;;;7.35;4.85;;;12.60;99.90;;;;;;5023823;28;20063;-86
2023/08/30 04:37:33;;;;;;;6.57;5.80;;;12.60;99.90;;;;;;5015720;28;20030;-86
2023/08/30 04:39:59;;;;;;;5.03;4.47;;;12.70;99.90;;;;;;5017734;28;20366;-85
2023/08/30 04:42:25;;;;;;;5.13;4.63;;;12.60;99.90;;;;;;5004936;28;20516;-87
2023/08/30 04:44:54;;;;;;;5.85;4.78;;;12.60;99.90;;;;;;5023930;28;20025;-86
2023/08/30 04:47:19;;;;;;;5.85;5.18;;;12.70;99.90;;;;;;5025084;28;20026;-86
2023/08/30 04:49:50;;;;;;;5.90;5.28;;;12.70;99.90;;;;;;5023838;28;20151;-85
2023/08/30 04:52:16;;;;;;;5.95;5.35;;;12.70;99.90;;;;;;5017346;28;20033;-85
2023/08/30 04:54:42;;;;;;;6.20;5.60;;;12.70;99.90;;;;;;5013220;28;20030;-85
2023/08/30 04:57:08;;;;;;;5.78;5.15;;;12.80;99.90;;;;;;5016126;28;20116;-87
2023/08/30 04:59:34;;;;;;;6.60;5.00;;;12.80;99.90;;;;;;5028702;28;20075;-86
2023/08/30 05:01:59;;;;;;;6.35;4.70;;;12.80;99.90;;;;;;5021811;28;20050;-86
2023/08/30 05:04:25;;;;;;;5.43;4.93;;;12.90;99.90;;;;;;5013415;28;20029;-86
2023/08/30 05:06:50;;;;;;;7.30;5.38;;;12.90;99.90;;;;;;5013395;28;20022;-85
2023/08/30 05:09:16;;;;;;;8.15;6.32;;;12.90;99.90;;;;;;5022630;28;20033;-87
2023/08/30 05:11:41;;;;;;;5.95;5.22;;;13.00;99.90;;;;;;5048968;28;20044;-88
2023/08/30 05:14:10;;;;;;;5.15;4.65;;;13.00;99.90;;;;;;5032308;28;20088;-87
2023/08/30 05:16:35;;;;;;;6.97;5.47;;;13.10;99.90;;;;;;5036398;28;20033;-87
2023/08/30 05:19:01;;;;;;;6.32;5.65;;;13.10;99.90;;;;;;5026890;28;20025;-88
2023/08/30 05:21:26;;;;;;;7.18;5.65;;;13.10;99.90;;;;;;5018773;28;20034;-87
2023/08/30 05:23:52;;;;;;;6.95;5.55;;;13.10;99.90;;;;;;5029274;28;20025;-87
2023/08/30 05:26:19;;;;;;;6.35;5.68;;;13.20;99.90;;;;;;5025110;28;20097;-88
2023/08/30 05:28:44;;;;;;;5.82;5.18;;;13.20;99.90;;;;;;5028561;28;20032;-85
2023/08/30 05:31:10;;;;;;;6.50;5.78;;;13.20;99.90;;;;;;5014928;28;20030;-86
2023/08/30 05:33:36;;;;;;;6.55;5.82;;;13.20;99.90;;;;;;5026038;28;20022;-87
2023/08/30 05:36:02;;;;;;;8.35;5.75;;;13.30;99.90;;;;;;5028721;28;20113;-86
2023/08/30 05:38:28;;;;;;;8.38;5.65;;;13.30;99.90;;;;;;5022860;28;20022;-87
2023/08/30 05:40:53;;;;;;;8.13;5.88;;;13.30;99.90;;;;;;5026712;28;20385;-86
2023/08/30 05:43:19;;;;;;;6.50;5.90;;;13.40;99.90;;;;;;5022206;28;20632;-86
2023/08/30 05:45:44;;;;;;;6.22;5.63;;;13.40;99.90;;;;;;5030050;28;20026;-86
2023/08/30 05:48:10;;;;;;;6.80;5.80;;;13.50;99.90;;;;;;5021839;28;20117;-86
2023/08/30 05:50:35;;;;;;;7.78;5.68;;;13.50;99.90;;;;;;5029296;28;20022;-86
2023/08/30 05:53:01;;;;;;;8.07;6.25;;;13.50;99.90;;;;;;5021661;28;20339;-86
2023/08/30 05:55:26;;;;;;;7.00;6.40;;;13.60;99.90;;;;;;5010653;28;20061;-87
2023/08/30 05:57:52;;;;;;;8.55;5.90;;;13.60;99.90;;;;;;5024825;28;20032;-86
2023/08/30 06:00:18;;;;;;;6.28;5.60;;;13.60;99.90;;;;;;5023971;28;20088;-86
2023/08/30 06:02:44;;;;;;;9.85;6.22;;;13.70;99.90;;;;;;5027547;28;20127;-88
2023/08/30 06:05:10;;;;;;;9.00;6.80;;;13.80;99.90;;;;;;5018295;28;20087;-87
2023/08/30 06:07:35;;;;;;;9.63;7.20;;;13.80;99.90;;;;;;5023988;28;20026;-86
2023/08/30 06:10:01;;;;;;;7.38;6.68;;;13.90;99.90;;;;;;5026005;28;20032;-87
2023/08/30 06:12:26;;;;;;;7.60;6.88;;;14.00;99.90;;;;;;5023380;28;20014;-87
2023/08/30 06:14:52;;;;;;;7.28;6.57;;;14.00;99.90;;;;;;5011602;28;20037;-87
2023/08/30 06:17:19;;;;;;;7.13;6.53;;;14.10;99.90;;;;;;5016514;28;20025;-87
2023/08/30 06:19:45;;;;;;;7.75;6.22;;;14.20;99.90;;;;;;5014710;28;20030;-88
2023/08/30 06:22:12;;;;;;;7.75;6.95;;;14.20;99.90;;;;;;5024101;28;20540;-86
2023/08/30 06:24:37;;;;;;;8.20;6.97;;;14.30;99.90;;;;;;5023276;28;20061;-88
2023/08/30 06:27:03;;;;;;;10.60;7.18;;;14.30;99.90;;;;;;5018614;28;20079;-87
2023/08/30 06:29:29;;;;;;;6.88;6.15;;;14.40;99.90;;;;;;5021358;28;20074;-87
2023/08/30 06:31:54;;;;;;;7.68;6.70;;;14.50;99.90;;;;;;5024031;28;20582;-87
2023/08/30 06:34:20;;;;;;;8.68;6.85;;;14.50;99.90;;;;;;5021636;28;20109;-87
2023/08/30 06:36:46;;;;;;;7.70;6.90;;;14.60;99.90;;;;;;5022436;28;20025;-87
2023/08/30 06:39:11;;;;;;;6.47;5.80;;;14.70;99.90;;;;;;5023031;28;20025;-90
2023/08/30 06:41:37;;;;;;;6.55;5.68;;;14.80;99.90;;;;;;5024700;28;20109;-86
2023/08/30 06:44:03;;;;;;;8.40;6.18;;;14.90;99.90;;;;;;5022205;28;20469;-87
2023/08/30 06:46:29;;;;;;;7.93;7.18;;;15.00;99.90;;;;;;5015930;28;20022;-87
2023/08/30 06:48:55;;;;;;;7.22;6.50;;;15.10;99.90;;;;;;5019988;28;20028;-87
2023/08/30 06:51:20;;;;;;;8.18;7.35;;;15.10;99.90;;;;;;5017559;28;20026;-87
2023/08/30 06:53:46;;;;;;;6.95;6.20;;;15.20;99.90;;;;;;5022286;28;20454;-87
2023/08/30 06:56:12;;;;;;;8.23;7.40;;;15.20;99.90;;;;;;5013548;28;20024;-87
2023/08/30 06:58:38;;;;;;;10.82;7.22;;;15.30;99.90;;;;;;5015842;28;20105;-87
2023/08/30 07:01:04;;;;;;;8.45;7.00;;;15.40;99.90;;;;;;5025144;28;20033;-87
2023/08/30 07:03:29;;;;;;;6.97;6.05;;;15.40;99.90;;;;;;5016588;28;20025;-87
2023/08/30 07:05:55;;;;;;;7.82;5.90;;;15.50;99.90;;;;;;5024450;28;20057;-87
2023/08/30 07:08:21;;;;;;;7.13;6.25;;;15.50;99.90;;;;;;5029522;28;20392;-87
2023/08/30 07:10:46;;;;;;;8.52;6.05;;;15.60;99.90;;;;;;5017507;28;20018;-90
2023/08/30 07:13:12;;;;;;;6.47;5.88;;;15.70;99.90;;;;;;5030383;28;20028;-87
2023/08/30 07:15:39;;;;;;;9.20;7.00;;;15.80;99.90;;;;;;5025255;28;20026;-87
2023/08/30 07:18:05;;;;;;;7.20;6.30;;;15.80;99.90;;;;;;5024363;28;20029;-87
2023/08/30 07:20:31;;;;;;;9.07;7.28;;;15.80;99.90;;;;;;5024333;28;20041;-87
2023/08/30 07:22:57;;;;;;;9.48;6.97;;;15.90;99.90;;;;;;5025500;28;20095;-88
2023/08/30 07:25:22;;;;;;;7.53;6.80;;;16.00;99.90;;;;;;5027880;28;20029;-87
2023/08/30 07:27:48;;;;;;;7.82;6.10;;;16.10;99.90;;;;;;5023718;28;20028;-89
2023/08/30 07:30:14;;;;;;;6.60;6.00;;;16.10;99.90;;;;;;5025044;28;20025;-86
2023/08/30 07:32:40;;;;;;;7.85;6.38;;;16.10;99.90;;;;;;5026016;28;20049;-86
2023/08/30 07:35:06;;;;;;;6.88;6.18;;;16.10;99.90;;;;;;5024753;28;20492;-87
2023/08/30 07:37:32;;;;;;;6.78;6.15;;;16.20;99.90;;;;;;5024925;28;20028;-87
2023/08/30 07:39:57;;;;;;;8.50;6.45;;;16.30;99.90;;;;;;5025273;28;20021;-88
2023/08/30 07:42:23;;;;;;;6.80;6.20;;;16.40;99.90;;;;;;5028673;28;20032;-87
2023/08/30 07:44:49;;;;;;;5.82;5.22;;;16.60;99.90;;;;;;5026171;28;20031;-86
2023/08/30 07:47:14;;;;;;;5.47;4.70;;;16.70;99.90;;;;;;5024106;28;20241;-86
2023/08/30 07:49:41;;;;;;;7.03;5.45;;;16.80;99.90;;;;;;5012292;28;20077;-88
2023/08/30 07:52:10;;;;;;;6.22;5.50;;;16.80;99.90;;;;;;5024100;28;20041;-87
2023/08/30 07:54:37;;;;;;;5.70;5.13;;;16.90;99.90;;;;;;5023867;28;20033;-87
2023/08/30 07:57:03;;;;;;;6.22;5.68;;;16.90;99.90;;;;;;5014461;28;20024;-87
2023/08/30 07:59:29;;;;;;;6.00;5.40;;;17.00;99.90;;;;;;5027222;28;20124;-87
2023/08/30 08:01:55;;;;;;;6.72;5.43;;;17.10;99.90;;;;;;5015990;28;20548;-87
2023/08/30 08:04:21;;;;;;;6.93;5.30;;;17.30;99.90;;;;;;5019650;28;20037;-87
2023/08/30 08:06:47;;;;;;;6.70;5.72;;;17.40;99.90;;;;;;5022137;28;20604;-87
2023/08/30 08:09:13;;;;;;;8.15;6.10;;;17.50;99.90;;;;;;5011833;28;20022;-87
2023/08/30 08:11:43;;;;;;;6.90;6.30;;;17.60;99.90;;;;;;5020656;28;20021;-87
2023/08/30 08:14:10;;;;;;;10.45;7.20;;;17.60;99.90;;;;;;5016256;28;20496;-87
2023/08/30 08:16:35;;;;;;;5.82;5.25;;;17.70;99.90;;;;;;5020407;28;20033;-87
2023/08/30 08:19:01;;;;;;;7.68;6.28;;;17.80;99.90;;;;;;5022652;28;20025;-87
2023/08/30 08:21:27;;;;;;;6.88;5.75;;;17.80;99.90;;;;;;5012162;28;20156;-86
2023/08/30 08:23:52;;;;;;;8.32;6.82;;;17.80;99.90;;;;;;5017854;28;20017;-87
2023/08/30 08:26:18;;;;;;;7.35;6.60;;;17.80;99.90;;;;;;5013506;28;20112;-88
2023/08/30 08:28:44;;;;;;;8.90;7.28;;;17.80;99.90;;;;;;5024962;28;20049;-88
2023/08/30 08:31:10;;;;;;;7.07;5.65;;;17.80;99.90;;;;;;5018373;28;20723;-87
2023/08/30 08:33:35;;;;;;;6.68;6.07;;;17.80;99.90;;;;;;5024615;28;20033;-88
2023/08/30 08:36:01;;;;;;;6.53;5.90;;;17.80;99.90;;;;;;5019722;28;20492;-88
2023/08/30 08:38:26;;;;;;;6.18;5.57;;;17.80;99.90;;;;;;5020843;28;20386;-86
2023/08/30 08:41:03;;;;;;;7.38;5.70;;;18.00;99.90;;;;;;5020599;28;20477;-86
2023/08/30 08:43:29;;;;;;;8.80;6.03;;;18.00;99.90;;;;;;5010916;28;20453;-85
2023/08/30 08:45:59;;;;;;;6.20;5.50;;;18.10;99.90;;;;;;5015736;28;20045;-86
2023/08/30 08:48:28;;;;;;;6.03;5.47;;;18.20;99.90;;;;;;5012947;28;20144;-86
2023/08/30 08:50:54;;;;;;;8.65;4.97;;;18.20;99.90;;;;;;5015752;28;20108;-86
2023/08/30 08:53:19;;;;;;;5.60;5.05;;;18.20;99.90;;;;;;5023168;28;20017;-86
2023/08/30 08:55:47;;;;;;;6.10;5.45;;;18.30;99.90;;;;;;5016191;28;20080;-86
2023/08/30 08:58:14;;;;;;;6.32;5.72;;;18.40;99.90;;;;;;5019339;28;20029;-87
2023/08/30 09:00:44;;;;;;;6.28;5.68;;;18.30;99.90;;;;;;5025184;28;20077;-86
2023/08/30 09:03:10;;;;;;;6.15;5.00;;;18.50;99.90;;;;;;5024358;28;20077;-90
2023/08/30 09:05:40;;;;;;;6.47;5.45;;;18.40;99.90;;;;;;5045938;28;20038;-88
2023/08/30 09:08:06;;;;;;;7.20;5.78;;;18.40;99.90;;;;;;5041805;28;20034;-86
2023/08/30 09:10:33;;;;;;;7.28;5.40;;;18.40;99.90;;;;;;5019855;28;20030;-86
2023/08/30 09:12:59;;;;;;;5.55;5.05;;;18.40;99.90;;;;;;5016278;28;20021;-86
2023/08/30 09:15:38;;;;;;;6.13;5.50;;;18.40;99.90;;;;;;5021848;28;20104;-86
2023/08/30 09:18:04;;;;;;;5.57;4.90;;;18.40;99.90;;;;;;5023371;28;20489;-86
2023/08/30 09:20:29;;;;;;;7.03;5.50;;;18.40;99.90;;;;;;5018432;28;20385;-87
2023/08/30 09:22:55;;;;;;;5.10;4.50;;;18.40;99.90;;;;;;5021029;28;20022;-87
2023/08/30 09:25:26;;;;;;;5.03;3.92;;;18.40;99.90;;;;;;5021838;28;20034;-87
2023/08/30 09:28:01;;;;;;;6.95;5.47;;;18.50;99.90;;;;;;5022059;28;20104;-87
2023/08/30 09:30:33;;;;;;;7.57;5.53;;;18.50;99.90;;;;;;5078803;28;20447;-61
2023/08/30 09:33:02;;;;;;;9.27;4.95;;;18.50;99.90;;;;;;5074384;28;20028;-61
2023/08/30 09:35:28;;;;;;;8.15;4.97;;;18.50;99.90;;;;;;5076011;28;20024;-62
2023/08/30 09:37:54;;;;;;;7.32;5.53;;;18.60;99.90;;;;;;5070294;28;20037;-59
2023/08/30 09:40:20;;;;;;;6.18;5.32;;;18.70;99.90;;;;;;5079217;28;20499;-59
2023/08/30 09:42:46;;;;;;;6.28;4.88;;;18.70;99.90;;;;;;5068515;28;20035;-61
2023/08/30 09:45:24;;;;;;;10.90;6.43;;;18.70;99.90;;;;;;5078615;28;20391;-62
2023/08/30 09:47:49;;;;;;;5.50;4.82;;;18.70;99.90;;;;;;5067182;28;20077;-61
2023/08/30 09:50:18;;;;;;;5.60;4.97;;;18.70;99.90;;;;;;5079746;28;20028;-60
2023/08/30 09:52:46;;;;;;;5.80;4.10;;;18.70;99.90;;;;;;5073868;28;20074;-62
2023/08/30 09:55:12;;;;;;;8.30;3.88;;;18.80;99.90;;;;;;5063212;28;20023;-62
2023/08/30 09:57:39;;;;;;;4.15;3.40;;;18.80;99.90;;;;;;5063539;28;20025;-62
2023/08/30 10:00:06;;;;;;;3.83;3.28;;;18.80;99.90;;;;;;5076575;28;20443;-61
2023/08/30 10:02:33;;;;;;;9.43;4.07;;;18.80;99.90;;;;;;5072817;28;20119;-63
2023/08/30 10:04:59;;;;;;;5.15;3.20;;;18.80;99.90;;;;;;5068022;28;20024;-62
2023/08/30 10:07:25;;;;;;;3.95;3.03;;;18.70;99.90;;;;;;5074198;28;20028;-62
2023/08/30 10:09:52;;;;;;;3.58;2.28;;;18.80;99.90;;;;;;5066821;28;20107;-62
2023/08/30 10:12:22;;;;;;;2.42;2.22;;;18.80;99.90;;;;;;5072436;28;20080;-62
2023/08/30 10:14:47;;;;;;;4.20;3.28;;;18.80;99.90;;;;;;5068993;28;20027;-62
2023/08/30 10:17:17;;;;;;;5.55;3.00;;;18.80;99.90;;;;;;5077079;28;20028;-61
2023/08/30 10:19:45;;;;;;;3.35;2.83;;;18.90;99.90;;;;;;5065262;28;20105;-61
2023/08/30 10:22:15;;;;;;;2.55;2.17;;;18.90;99.90;;;;;;5069421;28;20513;-61
2023/08/30 10:25:01;;;;;;;4.68;3.10;;;18.90;99.90;;;;;;5065680;28;20029;-63
2023/08/30 10:27:28;;;;;;;3.63;2.90;;;18.90;99.90;;;;;;5074633;28;20036;-62
2023/08/30 10:29:54;;;;;;;4.18;2.97;;;18.90;99.90;;;;;;5073261;28;20429;-61
2023/08/30 10:32:23;;;;;;;4.80;3.08;;;18.90;99.90;;;;;;5073733;28;20071;-63
2023/08/30 10:34:50;;;;;;;5.15;2.78;;;18.90;99.90;;;;;;5076169;28;20042;-61
2023/08/30 10:37:17;;;;;;;4.18;3.22;;;19.00;99.90;;;;;;5075567;28;20099;-59
2023/08/30 10:39:43;;;;;;;4.60;4.00;;;19.00;99.90;;;;;;5066334;28;20025;-62
2023/08/30 10:42:13;;;;;;;3.97;3.58;;;19.00;99.90;;;;;;5061841;28;20451;-62
2023/08/30 10:44:51;;;;;;;4.18;3.17;;;19.00;99.90;;;;;;5053252;28;20028;-62
2023/08/30 10:47:22;;;;;;;3.72;2.95;;;19.00;99.90;;;;;;5060864;28;20022;-61
2023/08/30 10:49:49;;;;;;;4.30;3.85;;;19.00;99.90;;;;;;5049140;28;20020;-60
2023/08/30 10:52:14;;;;;;;3.40;2.80;;;19.10;99.90;;;;;;5062002;28;20626;-62
2023/08/30 10:54:40;;;;;;;4.10;2.97;;;19.10;99.90;;;;;;5050110;28;20116;-60
2023/08/30 10:57:13;;;;;;;5.78;3.83;;;19.20;99.90;;;;;;5054849;28;20027;-61
2023/08/30 10:59:39;;;;;;;3.90;3.60;;;19.20;99.90;;;;;;5064399;28;20027;-62
2023/08/30 11:02:05;;;;;;;4.80;3.70;;;19.30;99.90;;;;;;5057711;28;20428;-63
2023/08/30 11:04:32;;;;;;;4.90;3.45;;;19.30;99.90;;;;;;5058300;28;20037;-62
2023/08/30 11:06:57;;;;;;;4.70;4.20;;;19.30;99.90;;;;;;5050072;28;20025;-61
2023/08/30 11:09:24;;;;;;;4.55;3.60;;;19.30;99.90;;;;;;5058185;28;20025;-61
2023/08/30 11:11:51;;;;;;;4.57;4.10;;;19.30;99.90;;;;;;5051510;28;20104;-62
2023/08/30 11:14:18;;;;;;;4.90;3.10;;;19.30;99.90;;;;;;5050933;28;20048;-62
2023/08/30 11:16:44;;;;;;;7.50;3.60;;;19.30;99.90;;;;;;5058692;28;20093;-62
2023/08/30 11:19:11;;;;;;;4.55;3.38;;;19.40;99.90;;;;;;5060526;28;20115;-61
2023/08/30 11:21:45;;;;;;;4.95;3.67;;;19.40;99.90;;;;;;5059689;28;20044;-60
2023/08/30 11:24:12;;;;;;;4.63;4.13;;;19.50;99.90;;;;;;5058733;28;20063;-62
2023/08/30 11:26:37;;;;;;;4.60;3.50;;;19.50;99.90;;;;;;5058843;28;20088;-62
2023/08/30 11:29:07;;;;;;;3.75;3.17;;;19.50;99.90;;;;;;5062455;28;20424;-61
2023/08/30 11:31:33;;;;;;;5.88;3.63;;;19.50;99.90;;;;;;5057910;28;20055;-57
2023/08/30 11:34:00;;;;;;;5.30;3.92;;;19.50;99.90;;;;;;5062973;28;20021;-60
2023/08/30 11:36:30;;;;;;;4.10;3.45;;;19.60;99.90;;;;;;5058086;28;20025;-63
2023/08/30 11:38:57;;;;;;;5.50;3.67;;;19.70;99.90;;;;;;5061286;28;20107;-56
2023/08/30 11:41:23;;;;;;;4.03;3.63;;;19.70;99.90;;;;;;5056146;28;20111;-61
2023/08/30 11:43:50;;;;;;;4.72;3.58;;;19.70;99.90;;;;;;5061371;28;20524;-62
2023/08/30 11:46:17;;;;;;;5.10;3.60;;;19.70;99.90;;;;;;5055855;28;20037;-61
2023/08/30 11:48:43;;;;;;;3.95;3.10;;;19.70;99.90;;;;;;5060221;28;20124;-59
2023/08/30 11:51:10;;;;;;;4.50;3.40;;;19.70;99.90;;;;;;5061020;28;20091;-60
2023/08/30 11:53:36;;;;;;;3.55;2.92;;;19.70;99.90;;;;;;5056865;28;20033;-60
2023/08/30 11:56:02;;;;;;;5.18;3.75;;;19.70;99.90;;;;;;5059339;28;20016;-59
2023/08/30 11:58:32;;;;;;;4.30;3.13;;;19.80;99.90;;;;;;5054060;28;20039;-60
2023/08/30 12:00:58;;;;;;;4.28;3.85;;;19.80;99.90;;;;;;5051850;28;20033;-61
2023/08/30 12:03:25;;;;;;;3.58;3.28;;;19.70;99.90;;;;;;5047970;28;20036;-60
2023/08/30 12:05:51;;;;;;;4.13;3.50;;;19.70;99.90;;;;;;5053051;28;20455;-61
2023/08/30 12:08:26;;;;;;;3.38;3.08;;;19.70;99.90;;;;;;5054720;28;20020;-61
2023/08/30 12:10:53;;;;;;;4.93;3.72;;;19.80;99.90;;;;;;5051416;28;20091;-61
2023/08/30 12:13:23;;;;;;;5.45;3.80;;;19.80;99.90;;;;;;5060470;28;20019;-61
2023/08/30 12:15:49;;;;;;;3.60;3.30;;;19.80;99.90;;;;;;5049580;28;20055;-61
2023/08/30 12:18:15;;;;;;;4.93;4.13;;;19.90;99.90;;;;;;5053716;28;20017;-61
2023/08/30 12:20:55;;;;;;;4.88;3.47;;;19.80;99.90;;;;;;5053883;28;20032;-60
2023/08/30 12:23:25;;;;;;;5.28;3.40;;;19.80;99.90;;;;;;5062221;28;20029;-60
2023/08/30 12:26:04;;;;;;;5.78;3.13;;;19.80;99.90;;;;;;5048123;28;20035;-62
2023/08/30 12:28:31;;;;;;;4.35;3.83;;;19.70;99.90;;;;;;5057592;28;20137;-60
2023/08/30 12:30:57;;;;;;;6.82;3.72;;;19.70;99.90;;;;;;5053195;28;20032;-60
2023/08/30 12:33:25;;;;;;;4.68;3.17;;;19.80;99.90;;;;;;5056258;28;20028;-61
2023/08/30 12:35:51;;;;;;;3.42;3.13;;;19.90;99.90;;;;;;5049915;28;20021;-62
2023/08/30 12:38:19;;;;;;;4.68;3.33;;;19.90;99.90;;;;;;5048557;28;20483;-61
2023/08/30 12:40:46;;;;;;;4.03;3.08;;;19.80;99.90;;;;;;5062354;28;20137;-63
2023/08/30 12:43:15;;;;;;;3.80;3.17;;;19.80;99.90;;;;;;5055845;28;20013;-60